sensor_id;sensor_type;location;lat;lon;timestamp;P1;durP1;ratioP1;P2;durP2;ratioP2
23266;SDS011;11802;53.160;8.214;2023-05-07T00:01:12;26.87;;;17.40;;
23266;SDS011;11802;53.160;8.214;2023-05-07T00:03:38;35.13;;;19.20;;
23266;SDS011;11802;53.160;8.214;2023-05-07T00:06:04;26.30;;;16.63;;
23266;SDS011;11802;53.160;8.214;2023-05-07T00:08:30;24.60;;;17.47;;
23266;SDS011;11802;53.160;8.214;2023-05-07T00:10:55;30.37;;;18.50;;
23266;SDS011;11802;53.160;8.214;2023-05-07T00:13:21;26.80;;;18.00;;
23266;SDS011;11802;53.160;8.214;2023-05-07T00:15:46;28.30;;;17.73;;
23266;SDS011;11802;53.160;8.214;2023-05-07T00:18:12;24.30;;;16.77;;
23266;SDS011;11802;53.160;8.214;2023-05-07T00:20:37;26.00;;;16.97;;
23266;SDS011;11802;53.160;8.214;2023-05-07T00:23:03;25.83;;;17.60;;
23266;SDS011;11802;53.160;8.214;2023-05-07T00:25:28;28.67;;;17.90;;
23266;SDS011;11802;53.160;8.214;2023-05-07T00:27:54;29.60;;;18.93;;
23266;SDS011;11802;53.160;8.214;2023-05-07T00:30:19;30.27;;;18.07;;
23266;SDS011;11802;53.160;8.214;2023-05-07T00:32:45;30.03;;;18.83;;
23266;SDS011;11802;53.160;8.214;2023-05-07T00:35:11;31.10;;;19.93;;
23266;SDS011;11802;53.160;8.214;2023-05-07T00:37:37;29.63;;;18.80;;
23266;SDS011;11802;53.160;8.214;2023-05-07T00:40:02;29.53;;;20.07;;
23266;SDS011;11802;53.160;8.214;2023-05-07T00:42:31;29.10;;;19.00;;
23266;SDS011;11802;53.160;8.214;2023-05-07T00:44:57;30.90;;;20.03;;
23266;SDS011;11802;53.160;8.214;2023-05-07T00:47:23;31.63;;;20.97;;
23266;SDS011;11802;53.160;8.214;2023-05-07T00:49:50;31.20;;;20.47;;
23266;SDS011;11802;53.160;8.214;2023-05-07T00:52:16;31.57;;;20.57;;
23266;SDS011;11802;53.160;8.214;2023-05-07T00:54:44;27.70;;;19.20;;
23266;SDS011;11802;53.160;8.214;2023-05-07T00:57:10;30.77;;;19.57;;
23266;SDS011;11802;53.160;8.214;2023-05-07T00:59:36;27.43;;;19.03;;
23266;SDS011;11802;53.160;8.214;2023-05-07T01:02:02;28.33;;;18.40;;
23266;SDS011;11802;53.160;8.214;2023-05-07T01:04:28;28.97;;;19.43;;
23266;SDS011;11802;53.160;8.214;2023-05-07T01:06:54;28.27;;;20.07;;
23266;SDS011;11802;53.160;8.214;2023-05-07T01:09:21;27.37;;;18.20;;
23266;SDS011;11802;53.160;8.214;2023-05-07T01:11:48;30.43;;;19.70;;
23266;SDS011;11802;53.160;8.214;2023-05-07T01:14:15;27.83;;;19.63;;
23266;SDS011;11802;53.160;8.214;2023-05-07T01:16:41;28.33;;;18.70;;
23266;SDS011;11802;53.160;8.214;2023-05-07T01:19:07;27.90;;;19.30;;
23266;SDS011;11802;53.160;8.214;2023-05-07T01:21:35;26.53;;;18.73;;
23266;SDS011;11802;53.160;8.214;2023-05-07T01:24:02;27.03;;;19.87;;
23266;SDS011;11802;53.160;8.214;2023-05-07T01:26:29;27.33;;;18.60;;
23266;SDS011;11802;53.160;8.214;2023-05-07T01:28:55;29.50;;;19.67;;
23266;SDS011;11802;53.160;8.214;2023-05-07T01:31:21;28.97;;;18.57;;
23266;SDS011;11802;53.160;8.214;2023-05-07T01:33:48;26.10;;;18.90;;
23266;SDS011;11802;53.160;8.214;2023-05-07T01:36:15;26.17;;;18.37;;
23266;SDS011;11802;53.160;8.214;2023-05-07T01:38:43;26.10;;;18.70;;
23266;SDS011;11802;53.160;8.214;2023-05-07T01:41:11;27.77;;;19.63;;
23266;SDS011;11802;53.160;8.214;2023-05-07T01:43:37;26.73;;;18.70;;
23266;SDS011;11802;53.160;8.214;2023-05-07T01:46:04;26.60;;;18.87;;
23266;SDS011;11802;53.160;8.214;2023-05-07T01:48:31;26.33;;;19.53;;
23266;SDS011;11802;53.160;8.214;2023-05-07T01:50:57;27.67;;;19.13;;
23266;SDS011;11802;53.160;8.214;2023-05-07T01:53:24;26.83;;;18.63;;
23266;SDS011;11802;53.160;8.214;2023-05-07T01:55:52;25.13;;;18.20;;
23266;SDS011;11802;53.160;8.214;2023-05-07T01:58:18;24.57;;;18.00;;
23266;SDS011;11802;53.160;8.214;2023-05-07T02:00:43;24.70;;;17.10;;
23266;SDS011;11802;53.160;8.214;2023-05-07T02:03:09;24.40;;;18.47;;
23266;SDS011;11802;53.160;8.214;2023-05-07T02:05:34;25.77;;;18.10;;
23266;SDS011;11802;53.160;8.214;2023-05-07T02:08:00;25.80;;;18.10;;
23266;SDS011;11802;53.160;8.214;2023-05-07T02:10:25;25.03;;;17.77;;
23266;SDS011;11802;53.160;8.214;2023-05-07T02:12:51;22.43;;;17.20;;
23266;SDS011;11802;53.160;8.214;2023-05-07T02:15:16;27.37;;;19.20;;
23266;SDS011;11802;53.160;8.214;2023-05-07T02:20:36;26.17;;;18.57;;
23266;SDS011;11802;53.160;8.214;2023-05-07T02:23:02;25.83;;;18.93;;
23266;SDS011;11802;53.160;8.214;2023-05-07T02:25:27;28.43;;;20.57;;
23266;SDS011;11802;53.160;8.214;2023-05-07T02:27:54;24.93;;;19.10;;
23266;SDS011;11802;53.160;8.214;2023-05-07T02:30:19;26.83;;;19.93;;
23266;SDS011;11802;53.160;8.214;2023-05-07T02:32:47;27.33;;;19.30;;
23266;SDS011;11802;53.160;8.214;2023-05-07T02:35:12;25.50;;;19.00;;
23266;SDS011;11802;53.160;8.214;2023-05-07T02:37:38;27.43;;;19.70;;
23266;SDS011;11802;53.160;8.214;2023-05-07T02:40:04;27.67;;;18.73;;
23266;SDS011;11802;53.160;8.214;2023-05-07T02:42:30;27.83;;;20.47;;
23266;SDS011;11802;53.160;8.214;2023-05-07T02:44:55;29.80;;;19.90;;
23266;SDS011;11802;53.160;8.214;2023-05-07T02:47:21;29.47;;;20.33;;
23266;SDS011;11802;53.160;8.214;2023-05-07T02:49:47;28.17;;;20.70;;
23266;SDS011;11802;53.160;8.214;2023-05-07T02:52:12;28.87;;;20.20;;
23266;SDS011;11802;53.160;8.214;2023-05-07T02:54:38;29.80;;;20.30;;
23266;SDS011;11802;53.160;8.214;2023-05-07T02:57:03;30.43;;;20.13;;
23266;SDS011;11802;53.160;8.214;2023-05-07T02:59:29;28.30;;;19.37;;
23266;SDS011;11802;53.160;8.214;2023-05-07T03:01:55;29.70;;;20.20;;
23266;SDS011;11802;53.160;8.214;2023-05-07T03:04:20;27.80;;;20.80;;
23266;SDS011;11802;53.160;8.214;2023-05-07T03:06:46;30.60;;;20.30;;
23266;SDS011;11802;53.160;8.214;2023-05-07T03:09:11;28.37;;;18.60;;
23266;SDS011;11802;53.160;8.214;2023-05-07T03:11:37;28.07;;;19.87;;
23266;SDS011;11802;53.160;8.214;2023-05-07T03:14:02;28.70;;;19.03;;
23266;SDS011;11802;53.160;8.214;2023-05-07T03:16:28;29.50;;;19.60;;
23266;SDS011;11802;53.160;8.214;2023-05-07T03:18:53;29.37;;;19.83;;
23266;SDS011;11802;53.160;8.214;2023-05-07T03:21:19;28.33;;;19.90;;
23266;SDS011;11802;53.160;8.214;2023-05-07T03:23:44;32.20;;;20.23;;
23266;SDS011;11802;53.160;8.214;2023-05-07T03:26:10;26.63;;;19.37;;
23266;SDS011;11802;53.160;8.214;2023-05-07T03:28:36;27.23;;;19.10;;
23266;SDS011;11802;53.160;8.214;2023-05-07T03:31:02;27.13;;;18.67;;
23266;SDS011;11802;53.160;8.214;2023-05-07T03:33:27;26.30;;;19.00;;
23266;SDS011;11802;53.160;8.214;2023-05-07T03:35:53;27.80;;;19.17;;
23266;SDS011;11802;53.160;8.214;2023-05-07T03:38:18;27.43;;;18.97;;
23266;SDS011;11802;53.160;8.214;2023-05-07T03:40:44;25.27;;;17.97;;
23266;SDS011;11802;53.160;8.214;2023-05-07T03:43:09;26.00;;;17.33;;
23266;SDS011;11802;53.160;8.214;2023-05-07T03:45:35;26.50;;;17.23;;
23266;SDS011;11802;53.160;8.214;2023-05-07T03:48:00;26.87;;;17.53;;
23266;SDS011;11802;53.160;8.214;2023-05-07T03:50:26;24.47;;;17.37;;
23266;SDS011;11802;53.160;8.214;2023-05-07T03:52:52;25.60;;;17.37;;
23266;SDS011;11802;53.160;8.214;2023-05-07T03:55:17;26.03;;;16.30;;
23266;SDS011;11802;53.160;8.214;2023-05-07T03:57:43;23.17;;;15.70;;
23266;SDS011;11802;53.160;8.214;2023-05-07T04:00:08;24.83;;;15.60;;
23266;SDS011;11802;53.160;8.214;2023-05-07T04:02:34;24.63;;;15.53;;
23266;SDS011;11802;53.160;8.214;2023-05-07T04:05:00;23.57;;;15.93;;
23266;SDS011;11802;53.160;8.214;2023-05-07T04:07:26;22.77;;;15.00;;
23266;SDS011;11802;53.160;8.214;2023-05-07T04:09:51;26.27;;;16.53;;
23266;SDS011;11802;53.160;8.214;2023-05-07T04:12:17;26.57;;;15.67;;
23266;SDS011;11802;53.160;8.214;2023-05-07T04:14:42;23.73;;;16.07;;
23266;SDS011;11802;53.160;8.214;2023-05-07T04:17:08;25.77;;;16.03;;
23266;SDS011;11802;53.160;8.214;2023-05-07T04:19:34;21.63;;;14.60;;
23266;SDS011;11802;53.160;8.214;2023-05-07T04:22:00;25.60;;;16.80;;
23266;SDS011;11802;53.160;8.214;2023-05-07T04:24:26;24.47;;;16.37;;
23266;SDS011;11802;53.160;8.214;2023-05-07T04:26:51;26.77;;;16.10;;
23266;SDS011;11802;53.160;8.214;2023-05-07T04:29:17;24.63;;;16.60;;
23266;SDS011;11802;53.160;8.214;2023-05-07T04:31:43;24.43;;;15.67;;
23266;SDS011;11802;53.160;8.214;2023-05-07T04:34:09;20.67;;;14.33;;
23266;SDS011;11802;53.160;8.214;2023-05-07T04:36:36;24.37;;;15.23;;
23266;SDS011;11802;53.160;8.214;2023-05-07T04:39:03;24.13;;;15.90;;
23266;SDS011;11802;53.160;8.214;2023-05-07T04:41:28;22.27;;;15.07;;
23266;SDS011;11802;53.160;8.214;2023-05-07T04:43:54;22.07;;;15.07;;
23266;SDS011;11802;53.160;8.214;2023-05-07T04:46:20;25.77;;;14.93;;
23266;SDS011;11802;53.160;8.214;2023-05-07T04:48:46;23.03;;;14.60;;
23266;SDS011;11802;53.160;8.214;2023-05-07T04:51:11;20.10;;;14.13;;
23266;SDS011;11802;53.160;8.214;2023-05-07T04:53:37;22.40;;;15.20;;
23266;SDS011;11802;53.160;8.214;2023-05-07T04:56:02;23.50;;;15.37;;
23266;SDS011;11802;53.160;8.214;2023-05-07T04:58:28;24.17;;;15.27;;
23266;SDS011;11802;53.160;8.214;2023-05-07T05:00:56;22.43;;;15.30;;
23266;SDS011;11802;53.160;8.214;2023-05-07T05:03:22;21.17;;;14.23;;
23266;SDS011;11802;53.160;8.214;2023-05-07T05:05:51;20.33;;;13.73;;
23266;SDS011;11802;53.160;8.214;2023-05-07T05:08:17;23.23;;;14.07;;
23266;SDS011;11802;53.160;8.214;2023-05-07T05:10:43;23.00;;;13.70;;
23266;SDS011;11802;53.160;8.214;2023-05-07T05:13:09;21.97;;;14.27;;
23266;SDS011;11802;53.160;8.214;2023-05-07T05:15:34;23.80;;;15.10;;
23266;SDS011;11802;53.160;8.214;2023-05-07T05:18:00;22.97;;;14.10;;
23266;SDS011;11802;53.160;8.214;2023-05-07T05:20:26;21.90;;;14.70;;
23266;SDS011;11802;53.160;8.214;2023-05-07T05:22:51;21.60;;;14.17;;
23266;SDS011;11802;53.160;8.214;2023-05-07T05:25:17;23.60;;;15.57;;
23266;SDS011;11802;53.160;8.214;2023-05-07T05:27:42;21.80;;;14.47;;
23266;SDS011;11802;53.160;8.214;2023-05-07T05:30:08;23.60;;;15.27;;
23266;SDS011;11802;53.160;8.214;2023-05-07T05:32:34;26.00;;;16.27;;
23266;SDS011;11802;53.160;8.214;2023-05-07T05:34:59;23.13;;;15.73;;
23266;SDS011;11802;53.160;8.214;2023-05-07T05:37:25;23.47;;;15.83;;
23266;SDS011;11802;53.160;8.214;2023-05-07T05:39:51;23.70;;;15.13;;
23266;SDS011;11802;53.160;8.214;2023-05-07T05:42:17;20.80;;;14.63;;
23266;SDS011;11802;53.160;8.214;2023-05-07T05:44:43;22.10;;;15.33;;
23266;SDS011;11802;53.160;8.214;2023-05-07T05:47:08;23.87;;;15.53;;
23266;SDS011;11802;53.160;8.214;2023-05-07T05:49:34;22.60;;;14.97;;
23266;SDS011;11802;53.160;8.214;2023-05-07T05:52:00;22.50;;;15.20;;
23266;SDS011;11802;53.160;8.214;2023-05-07T05:54:25;23.07;;;15.17;;
23266;SDS011;11802;53.160;8.214;2023-05-07T05:56:51;25.10;;;15.97;;
23266;SDS011;11802;53.160;8.214;2023-05-07T05:59:16;23.00;;;14.60;;
23266;SDS011;11802;53.160;8.214;2023-05-07T06:01:42;23.77;;;15.03;;
23266;SDS011;11802;53.160;8.214;2023-05-07T06:04:07;24.30;;;15.23;;
23266;SDS011;11802;53.160;8.214;2023-05-07T06:06:33;21.70;;;14.07;;
23266;SDS011;11802;53.160;8.214;2023-05-07T06:08:58;21.73;;;16.03;;
23266;SDS011;11802;53.160;8.214;2023-05-07T06:11:24;21.87;;;14.67;;
23266;SDS011;11802;53.160;8.214;2023-05-07T06:13:50;24.30;;;15.57;;
23266;SDS011;11802;53.160;8.214;2023-05-07T06:16:15;21.33;;;14.90;;
23266;SDS011;11802;53.160;8.214;2023-05-07T06:18:41;23.23;;;15.70;;
23266;SDS011;11802;53.160;8.214;2023-05-07T06:21:06;21.87;;;13.73;;
23266;SDS011;11802;53.160;8.214;2023-05-07T06:23:32;22.53;;;14.20;;
23266;SDS011;11802;53.160;8.214;2023-05-07T06:25:57;21.10;;;14.57;;
23266;SDS011;11802;53.160;8.214;2023-05-07T06:28:23;20.77;;;14.17;;
23266;SDS011;11802;53.160;8.214;2023-05-07T06:30:49;22.57;;;14.17;;
23266;SDS011;11802;53.160;8.214;2023-05-07T06:33:15;21.63;;;15.37;;
23266;SDS011;11802;53.160;8.214;2023-05-07T06:35:40;22.27;;;15.10;;
23266;SDS011;11802;53.160;8.214;2023-05-07T06:38:06;23.83;;;15.07;;
23266;SDS011;11802;53.160;8.214;2023-05-07T06:40:31;20.70;;;14.10;;
23266;SDS011;11802;53.160;8.214;2023-05-07T06:42:57;22.60;;;14.63;;
23266;SDS011;11802;53.160;8.214;2023-05-07T06:45:23;23.97;;;15.77;;
23266;SDS011;11802;53.160;8.214;2023-05-07T06:47:50;20.47;;;14.13;;
23266;SDS011;11802;53.160;8.214;2023-05-07T06:50:15;21.23;;;14.50;;
23266;SDS011;11802;53.160;8.214;2023-05-07T06:52:41;19.23;;;13.63;;
23266;SDS011;11802;53.160;8.214;2023-05-07T06:55:08;20.83;;;14.10;;
23266;SDS011;11802;53.160;8.214;2023-05-07T06:57:34;20.83;;;14.40;;
23266;SDS011;11802;53.160;8.214;2023-05-07T06:59:59;21.60;;;13.20;;
23266;SDS011;11802;53.160;8.214;2023-05-07T07:02:25;19.63;;;11.73;;
23266;SDS011;11802;53.160;8.214;2023-05-07T07:04:50;17.67;;;12.87;;
23266;SDS011;11802;53.160;8.214;2023-05-07T07:07:16;17.47;;;12.80;;
23266;SDS011;11802;53.160;8.214;2023-05-07T07:09:42;16.80;;;11.97;;
23266;SDS011;11802;53.160;8.214;2023-05-07T07:12:07;18.30;;;12.60;;
23266;SDS011;11802;53.160;8.214;2023-05-07T07:14:33;17.73;;;11.57;;
23266;SDS011;11802;53.160;8.214;2023-05-07T07:16:58;17.60;;;11.67;;
23266;SDS011;11802;53.160;8.214;2023-05-07T07:19:23;18.03;;;11.10;;
23266;SDS011;11802;53.160;8.214;2023-05-07T07:21:50;14.67;;;11.00;;
23266;SDS011;11802;53.160;8.214;2023-05-07T07:24:16;15.43;;;11.53;;
23266;SDS011;11802;53.160;8.214;2023-05-07T07:26:45;16.13;;;11.13;;
23266;SDS011;11802;53.160;8.214;2023-05-07T07:29:11;14.40;;;10.80;;
23266;SDS011;11802;53.160;8.214;2023-05-07T07:31:37;15.23;;;10.67;;
23266;SDS011;11802;53.160;8.214;2023-05-07T07:34:02;14.67;;;11.50;;
23266;SDS011;11802;53.160;8.214;2023-05-07T07:36:28;13.67;;;10.00;;
23266;SDS011;11802;53.160;8.214;2023-05-07T07:38:53;12.80;;;9.57;;
23266;SDS011;11802;53.160;8.214;2023-05-07T07:41:19;14.53;;;10.07;;
23266;SDS011;11802;53.160;8.214;2023-05-07T07:43:44;13.57;;;9.87;;
23266;SDS011;11802;53.160;8.214;2023-05-07T07:46:11;14.00;;;10.53;;
23266;SDS011;11802;53.160;8.214;2023-05-07T07:48:37;13.93;;;10.27;;
23266;SDS011;11802;53.160;8.214;2023-05-07T07:51:02;13.47;;;9.70;;
23266;SDS011;11802;53.160;8.214;2023-05-07T07:53:28;14.20;;;10.20;;
23266;SDS011;11802;53.160;8.214;2023-05-07T07:55:53;12.03;;;9.07;;
23266;SDS011;11802;53.160;8.214;2023-05-07T07:58:19;14.50;;;10.80;;
23266;SDS011;11802;53.160;8.214;2023-05-07T08:00:45;14.17;;;10.40;;
23266;SDS011;11802;53.160;8.214;2023-05-07T08:03:12;15.03;;;10.20;;
23266;SDS011;11802;53.160;8.214;2023-05-07T08:05:37;14.10;;;9.97;;
23266;SDS011;11802;53.160;8.214;2023-05-07T08:08:03;12.80;;;10.10;;
23266;SDS011;11802;53.160;8.214;2023-05-07T08:10:29;13.97;;;10.07;;
23266;SDS011;11802;53.160;8.214;2023-05-07T08:12:58;15.90;;;10.53;;
23266;SDS011;11802;53.160;8.214;2023-05-07T08:15:24;13.20;;;10.07;;
23266;SDS011;11802;53.160;8.214;2023-05-07T08:17:49;14.53;;;10.23;;
23266;SDS011;11802;53.160;8.214;2023-05-07T08:20:15;14.17;;;11.03;;
23266;SDS011;11802;53.160;8.214;2023-05-07T08:22:40;13.97;;;10.40;;
23266;SDS011;11802;53.160;8.214;2023-05-07T08:25:06;15.07;;;10.73;;
23266;SDS011;11802;53.160;8.214;2023-05-07T08:27:32;13.57;;;10.33;;
23266;SDS011;11802;53.160;8.214;2023-05-07T08:29:57;14.20;;;10.53;;
23266;SDS011;11802;53.160;8.214;2023-05-07T08:32:23;17.47;;;10.63;;
23266;SDS011;11802;53.160;8.214;2023-05-07T08:34:48;13.73;;;10.87;;
23266;SDS011;11802;53.160;8.214;2023-05-07T08:37:14;14.40;;;10.83;;
23266;SDS011;11802;53.160;8.214;2023-05-07T08:39:40;14.03;;;10.90;;
23266;SDS011;11802;53.160;8.214;2023-05-07T08:42:05;12.70;;;9.93;;
23266;SDS011;11802;53.160;8.214;2023-05-07T08:44:33;14.80;;;11.07;;
23266;SDS011;11802;53.160;8.214;2023-05-07T08:47:02;15.43;;;11.43;;
23266;SDS011;11802;53.160;8.214;2023-05-07T08:49:31;13.13;;;10.27;;
23266;SDS011;11802;53.160;8.214;2023-05-07T08:51:58;14.03;;;10.70;;
23266;SDS011;11802;53.160;8.214;2023-05-07T08:54:24;13.33;;;10.37;;
23266;SDS011;11802;53.160;8.214;2023-05-07T08:56:50;14.27;;;10.83;;
23266;SDS011;11802;53.160;8.214;2023-05-07T08:59:16;15.03;;;10.83;;
23266;SDS011;11802;53.160;8.214;2023-05-07T09:01:42;13.17;;;10.60;;
23266;SDS011;11802;53.160;8.214;2023-05-07T09:04:07;13.37;;;10.63;;
23266;SDS011;11802;53.160;8.214;2023-05-07T09:06:34;15.43;;;10.53;;
23266;SDS011;11802;53.160;8.214;2023-05-07T09:09:00;14.13;;;11.20;;
23266;SDS011;11802;53.160;8.214;2023-05-07T09:11:26;13.27;;;10.67;;
23266;SDS011;11802;53.160;8.214;2023-05-07T09:13:55;14.30;;;9.90;;
23266;SDS011;11802;53.160;8.214;2023-05-07T09:16:23;13.87;;;10.00;;
23266;SDS011;11802;53.160;8.214;2023-05-07T09:18:51;13.53;;;9.90;;
23266;SDS011;11802;53.160;8.214;2023-05-07T09:21:18;11.37;;;9.17;;
23266;SDS011;11802;53.160;8.214;2023-05-07T09:23:44;11.83;;;9.73;;
23266;SDS011;11802;53.160;8.214;2023-05-07T09:26:10;12.37;;;9.40;;
23266;SDS011;11802;53.160;8.214;2023-05-07T09:28:39;14.30;;;8.63;;
23266;SDS011;11802;53.160;8.214;2023-05-07T09:31:06;12.27;;;9.30;;
23266;SDS011;11802;53.160;8.214;2023-05-07T09:33:32;11.70;;;9.23;;
23266;SDS011;11802;53.160;8.214;2023-05-07T09:35:58;12.13;;;9.17;;
23266;SDS011;11802;53.160;8.214;2023-05-07T09:38:23;11.83;;;8.87;;
23266;SDS011;11802;53.160;8.214;2023-05-07T09:41:12;12.67;;;8.57;;
23266;SDS011;11802;53.160;8.214;2023-05-07T09:43:37;10.93;;;8.30;;
23266;SDS011;11802;53.160;8.214;2023-05-07T09:46:14;10.93;;;8.37;;
23266;SDS011;11802;53.160;8.214;2023-05-07T09:48:41;11.40;;;8.87;;
23266;SDS011;11802;53.160;8.214;2023-05-07T09:51:21;10.43;;;8.17;;
23266;SDS011;11802;53.160;8.214;2023-05-07T09:53:54;9.50;;;7.80;;
23266;SDS011;11802;53.160;8.214;2023-05-07T09:56:21;10.40;;;7.60;;
23266;SDS011;11802;53.160;8.214;2023-05-07T09:58:47;11.60;;;8.83;;
23266;SDS011;11802;53.160;8.214;2023-05-07T10:01:14;10.83;;;8.00;;
23266;SDS011;11802;53.160;8.214;2023-05-07T10:03:44;10.23;;;8.20;;
23266;SDS011;11802;53.160;8.214;2023-05-07T10:06:10;9.70;;;7.87;;
23266;SDS011;11802;53.160;8.214;2023-05-07T10:08:38;9.67;;;7.73;;
23266;SDS011;11802;53.160;8.214;2023-05-07T10:11:04;11.60;;;8.00;;
23266;SDS011;11802;53.160;8.214;2023-05-07T10:13:31;9.43;;;7.70;;
23266;SDS011;11802;53.160;8.214;2023-05-07T10:15:58;9.23;;;7.33;;
23266;SDS011;11802;53.160;8.214;2023-05-07T10:18:24;9.47;;;7.47;;
23266;SDS011;11802;53.160;8.214;2023-05-07T10:20:54;9.50;;;7.80;;
23266;SDS011;11802;53.160;8.214;2023-05-07T10:23:26;10.57;;;7.60;;
23266;SDS011;11802;53.160;8.214;2023-05-07T10:25:53;9.87;;;7.33;;
23266;SDS011;11802;53.160;8.214;2023-05-07T10:28:20;11.47;;;7.50;;
23266;SDS011;11802;53.160;8.214;2023-05-07T10:34:00;9.87;;;7.77;;
23266;SDS011;11802;53.160;8.214;2023-05-07T10:36:33;10.23;;;7.80;;
23266;SDS011;11802;53.160;8.214;2023-05-07T10:38:59;9.57;;;7.80;;
23266;SDS011;11802;53.160;8.214;2023-05-07T10:41:25;12.37;;;8.10;;
23266;SDS011;11802;53.160;8.214;2023-05-07T10:43:50;10.53;;;8.60;;
23266;SDS011;11802;53.160;8.214;2023-05-07T10:49:05;9.33;;;8.00;;
23266;SDS011;11802;53.160;8.214;2023-05-07T10:51:31;10.37;;;8.20;;
23266;SDS011;11802;53.160;8.214;2023-05-07T10:56:36;8.37;;;6.87;;
23266;SDS011;11802;53.160;8.214;2023-05-07T11:01:58;10.27;;;8.27;;
23266;SDS011;11802;53.160;8.214;2023-05-07T11:04:27;10.38;;;8.30;;
23266;SDS011;11802;53.160;8.214;2023-05-07T11:15:08;9.98;;;8.30;;
23266;SDS011;11802;53.160;8.214;2023-05-07T11:17:57;11.43;;;9.02;;
23266;SDS011;11802;53.160;8.214;2023-05-07T11:26:04;10.77;;;8.70;;
23266;SDS011;11802;53.160;8.214;2023-05-07T11:28:42;10.57;;;8.93;;
23266;SDS011;11802;53.160;8.214;2023-05-07T11:31:09;12.63;;;9.07;;
23266;SDS011;11802;53.160;8.214;2023-05-07T11:33:36;11.87;;;9.50;;
23266;SDS011;11802;53.160;8.214;2023-05-07T11:36:03;11.30;;;8.87;;
23266;SDS011;11802;53.160;8.214;2023-05-07T11:38:29;11.57;;;8.77;;
23266;SDS011;11802;53.160;8.214;2023-05-07T11:40:56;10.68;;;9.07;;
23266;SDS011;11802;53.160;8.214;2023-05-07T11:43:25;10.80;;;8.65;;
23266;SDS011;11802;53.160;8.214;2023-05-07T11:45:51;13.13;;;9.80;;
23266;SDS011;11802;53.160;8.214;2023-05-07T11:48:17;13.67;;;9.10;;
23266;SDS011;11802;53.160;8.214;2023-05-07T11:53:27;11.17;;;8.90;;
23266;SDS011;11802;53.160;8.214;2023-05-07T11:55:54;11.37;;;9.53;;
23266;SDS011;11802;53.160;8.214;2023-05-07T11:58:21;11.73;;;9.30;;
23266;SDS011;11802;53.160;8.214;2023-05-07T12:00:48;11.90;;;8.55;;
23266;SDS011;11802;53.160;8.214;2023-05-07T12:03:18;10.73;;;8.68;;
23266;SDS011;11802;53.160;8.214;2023-05-07T12:05:44;16.23;;;9.73;;
23266;SDS011;11802;53.160;8.214;2023-05-07T12:08:19;10.85;;;9.30;;
23266;SDS011;11802;53.160;8.214;2023-05-07T12:10:47;10.15;;;8.40;;
23266;SDS011;11802;53.160;8.214;2023-05-07T12:13:17;12.10;;;9.07;;
23266;SDS011;11802;53.160;8.214;2023-05-07T12:15:44;14.57;;;9.23;;
23266;SDS011;11802;53.160;8.214;2023-05-07T12:18:10;15.65;;;8.65;;
23266;SDS011;11802;53.160;8.214;2023-05-07T12:20:36;10.38;;;8.52;;
23266;SDS011;11802;53.160;8.214;2023-05-07T12:23:02;14.07;;;9.43;;
23266;SDS011;11802;53.160;8.214;2023-05-07T12:25:32;10.55;;;8.68;;
23266;SDS011;11802;53.160;8.214;2023-05-07T12:28:01;11.45;;;9.05;;
23266;SDS011;11802;53.160;8.214;2023-05-07T12:30:27;12.38;;;9.52;;
23266;SDS011;11802;53.160;8.214;2023-05-07T12:32:53;11.63;;;9.27;;
23266;SDS011;11802;53.160;8.214;2023-05-07T12:35:26;11.60;;;9.30;;
23266;SDS011;11802;53.160;8.214;2023-05-07T12:37:56;10.57;;;8.98;;
23266;SDS011;11802;53.160;8.214;2023-05-07T12:40:25;12.73;;;9.45;;
23266;SDS011;11802;53.160;8.214;2023-05-07T12:43:01;12.85;;;9.57;;
23266;SDS011;11802;53.160;8.214;2023-05-07T12:45:26;11.27;;;8.85;;
23266;SDS011;11802;53.160;8.214;2023-05-07T12:47:52;12.38;;;8.95;;
23266;SDS011;11802;53.160;8.214;2023-05-07T12:50:18;11.45;;;9.27;;
23266;SDS011;11802;53.160;8.214;2023-05-07T12:52:43;10.32;;;8.63;;
23266;SDS011;11802;53.160;8.214;2023-05-07T12:55:12;11.30;;;9.25;;
23266;SDS011;11802;53.160;8.214;2023-05-07T12:57:40;10.20;;;8.43;;
23266;SDS011;11802;53.160;8.214;2023-05-07T13:00:06;10.68;;;8.90;;
23266;SDS011;11802;53.160;8.214;2023-05-07T13:02:33;12.27;;;9.65;;
23266;SDS011;11802;53.160;8.214;2023-05-07T13:05:02;13.32;;;8.85;;
23266;SDS011;11802;53.160;8.214;2023-05-07T13:07:27;11.73;;;8.82;;
23266;SDS011;11802;53.160;8.214;2023-05-07T13:09:53;10.90;;;8.60;;
23266;SDS011;11802;53.160;8.214;2023-05-07T13:12:18;11.30;;;9.18;;
23266;SDS011;11802;53.160;8.214;2023-05-07T13:14:44;13.00;;;8.15;;
23266;SDS011;11802;53.160;8.214;2023-05-07T13:17:09;10.73;;;8.57;;
23266;SDS011;11802;53.160;8.214;2023-05-07T13:19:35;12.63;;;8.60;;
23266;SDS011;11802;53.160;8.214;2023-05-07T13:22:02;9.55;;;8.10;;
23266;SDS011;11802;53.160;8.214;2023-05-07T13:24:28;8.65;;;7.35;;
23266;SDS011;11802;53.160;8.214;2023-05-07T13:26:56;10.18;;;7.65;;
23266;SDS011;11802;53.160;8.214;2023-05-07T13:29:22;11.00;;;8.65;;
23266;SDS011;11802;53.160;8.214;2023-05-07T13:31:55;11.05;;;7.75;;
23266;SDS011;11802;53.160;8.214;2023-05-07T13:34:21;9.30;;;7.90;;
23266;SDS011;11802;53.160;8.214;2023-05-07T13:36:47;9.40;;;8.07;;
23266;SDS011;11802;53.160;8.214;2023-05-07T13:39:12;11.65;;;8.40;;
23266;SDS011;11802;53.160;8.214;2023-05-07T13:41:38;10.68;;;7.90;;
23266;SDS011;11802;53.160;8.214;2023-05-07T13:44:03;10.07;;;8.32;;
23266;SDS011;11802;53.160;8.214;2023-05-07T13:46:29;11.48;;;8.73;;
23266;SDS011;11802;53.160;8.214;2023-05-07T13:48:55;10.73;;;7.78;;
23266;SDS011;11802;53.160;8.214;2023-05-07T13:51:21;8.63;;;7.35;;
23266;SDS011;11802;53.160;8.214;2023-05-07T13:53:47;9.50;;;7.47;;
23266;SDS011;11802;53.160;8.214;2023-05-07T13:56:12;9.85;;;7.60;;
23266;SDS011;11802;53.160;8.214;2023-05-07T13:58:39;9.50;;;7.13;;
23266;SDS011;11802;53.160;8.214;2023-05-07T14:01:04;9.10;;;7.03;;
23266;SDS011;11802;53.160;8.214;2023-05-07T14:03:30;9.30;;;6.97;;
23266;SDS011;11802;53.160;8.214;2023-05-07T14:05:57;8.60;;;6.72;;
23266;SDS011;11802;53.160;8.214;2023-05-07T14:08:24;9.20;;;6.45;;
23266;SDS011;11802;53.160;8.214;2023-05-07T14:10:50;9.35;;;7.13;;
23266;SDS011;11802;53.160;8.214;2023-05-07T14:13:16;9.43;;;6.20;;
23266;SDS011;11802;53.160;8.214;2023-05-07T14:15:42;7.90;;;6.53;;
23266;SDS011;11802;53.160;8.214;2023-05-07T14:18:11;9.13;;;6.38;;
23266;SDS011;11802;53.160;8.214;2023-05-07T14:20:37;13.15;;;6.90;;
23266;SDS011;11802;53.160;8.214;2023-05-07T14:23:02;8.65;;;6.45;;
23266;SDS011;11802;53.160;8.214;2023-05-07T14:25:28;10.27;;;6.97;;
23266;SDS011;11802;53.160;8.214;2023-05-07T14:27:54;8.43;;;5.88;;
23266;SDS011;11802;53.160;8.214;2023-05-07T14:30:19;8.85;;;6.00;;
23266;SDS011;11802;53.160;8.214;2023-05-07T14:32:45;9.00;;;6.45;;
23266;SDS011;11802;53.160;8.214;2023-05-07T14:35:10;8.63;;;6.35;;
23266;SDS011;11802;53.160;8.214;2023-05-07T14:37:36;7.53;;;6.32;;
23266;SDS011;11802;53.160;8.214;2023-05-07T14:40:01;6.82;;;5.65;;
23266;SDS011;11802;53.160;8.214;2023-05-07T14:42:27;7.80;;;5.35;;
23266;SDS011;11802;53.160;8.214;2023-05-07T14:44:52;8.50;;;5.45;;
23266;SDS011;11802;53.160;8.214;2023-05-07T14:47:18;10.15;;;6.35;;
23266;SDS011;11802;53.160;8.214;2023-05-07T14:49:43;7.95;;;6.55;;
23266;SDS011;11802;53.160;8.214;2023-05-07T14:52:09;7.35;;;6.00;;
23266;SDS011;11802;53.160;8.214;2023-05-07T14:54:35;8.93;;;6.32;;